Justice — WDG2184 — position and weather

sailwx.info

Track history (hours):
 
Tides and Currents Weather Stations Pressure Air Temp Water Temp Dewpoint Dewpoint Depression Visibility Wind Speed Wind Dir Waves Ship Positions

Justice

Owner: Boston Towing & Transportation, Boston, MA. More information available from US FCC via Universal Licensing System and Coast Guard Vessel Documentation Center.

Last reported at 2016-Jun-28 11:33 UTC. Time now 2016-Jun-28 11:41 UTC.
Position N 42°23' W 071°03'.

Length 30 m; draft 5.8 m.

Type: Tug. MMSI: 367513010.

Date/timePositionNaut miles runAvg speedWind from/ knotsBaromVisibWave heightAir tempDewpointWater temp
2016-Jun-28 11:33N 42°23' W 071°03'0 0.0
2016-Jun-28 10:33N 42°23' W 071°03'0 0.0
2016-Jun-28 09:34N 42°23' W 071°03'0 0.0
2016-Jun-28 08:33N 42°23' W 071°03'0 0.0
2016-Jun-28 07:33N 42°23' W 071°03'0 0.0
2016-Jun-28 06:33N 42°23' W 071°03'0 0.0
2016-Jun-28 04:33N 42°23' W 071°03'0 0.0
2016-Jun-28 03:34N 42°23' W 071°03'0 0.0
2016-Jun-28 02:33N 42°23' W 071°03'0 0.0
2016-Jun-28 01:33N 42°23' W 071°03'0 0.0
2016-Jun-28 00:33N 42°23' W 071°03'0 0.0
2016-Jun-27 23:33N 42°23' W 071°03'0 0.0
2016-Jun-27 22:33N 42°23' W 071°03'0 0.1
2016-Jun-27 21:33N 42°23' W 071°03'0 0.0
2016-Jun-27 20:33N 42°23' W 071°03'0 0.0
2016-Jun-27 19:34N 42°23' W 071°03'5 5.2
2016-Jun-27 18:34N 42°20' W 070°57'9 8.8
2016-Jun-27 17:33N 42°18' W 070°45'40 7.4
2016-Jun-27 12:09N 41°38' W 070°42'5 9.2
2016-Jun-27 11:34N 41°33' W 070°45'11 9.6
2016-Jun-27 10:28N 41°28' W 070°57'1 1.2
2016-Jun-27 09:21N 41°29' W 070°56'910.4
2016-Jun-27 08:28N 41°34' W 070°45'9 9.7
2016-Jun-27 07:34N 41°41' W 070°40'3 3.5
2016-Jun-27 06:33N 41°44' W 070°37'0 0.0
2016-Jun-27 05:34N 41°44' W 070°37'0 0.0
2016-Jun-27 04:33N 41°44' W 070°37'27 3.9
2016-Jun-26 21:33N 42°12' W 070°38'8 8.2
2016-Jun-26 20:33N 42°17' W 070°46'9 8.6
2016-Jun-26 19:33N 42°20' W 070°57'5 4.6
2016-Jun-26 18:34N 42°24' W 071°01'2 1.8
2016-Jun-26 17:34N 42°23' W 071°03'0 0.1
2016-Jun-26 16:34N 42°23' W 071°03'0 0.0
2016-Jun-26 15:34N 42°23' W 071°03'0 0.0
2016-Jun-26 14:34N 42°23' W 071°03'0 0.0
2016-Jun-26 13:33N 42°23' W 071°03'0 0.0
2016-Jun-26 12:33N 42°23' W 071°03'3 2.8
2016-Jun-26 11:33N 42°20' W 071°00'5 4.7
2016-Jun-26 10:34N 42°17' W 070°56'4 3.6
2016-Jun-26 09:34N 42°14' W 070°58'6 5.8
2016-Jun-26 08:34N 42°20' W 070°58'1 0.8
2016-Jun-26 07:34N 42°20' W 070°60'0 0.1
2016-Jun-26 06:34N 42°20' W 070°60'3 3.3
2016-Jun-26 05:34N 42°23' W 071°03'2 2.4
2016-Jun-26 04:33N 42°21' W 071°01'3 3.3
2016-Jun-26 03:33N 42°24' W 071°01'2 1.7
2016-Jun-26 02:33N 42°23' W 071°03'0 0.0
2016-Jun-26 01:33N 42°23' W 071°03'0 0.0
2016-Jun-26 00:34N 42°23' W 071°03'0 0.0
2016-Jun-25 23:34N 42°23' W 071°03'0 0.0
2016-Jun-25 22:34N 42°23' W 071°03'0 0.0
2016-Jun-25 21:34N 42°23' W 071°03'0 0.0
2016-Jun-25 20:33N 42°23' W 071°03'1 0.9
2016-Jun-25 19:34N 42°22' W 071°03'1 1.4
2016-Jun-25 18:33N 42°21' W 071°02'0 0.0
2016-Jun-25 17:34N 42°21' W 071°02'0 0.0
2016-Jun-25 16:34N 42°21' W 071°02'0 0.0
2016-Jun-25 15:33N 42°21' W 071°02'3 2.6
2016-Jun-25 14:33N 42°23' W 071°03'0 0.0
2016-Jun-25 13:34N 42°23' W 071°03'0 0.0
2016-Jun-25 12:33N 42°23' W 071°03'0 0.0
2016-Jun-25 11:33N 42°23' W 071°03'2 1.8
2016-Jun-25 10:34N 42°21' W 071°02'1 0.8
2016-Jun-25 09:33N 42°21' W 071°01'2 2.2
2016-Jun-25 08:33N 42°23' W 071°03'0 0.0
2016-Jun-25 07:33N 42°23' W 071°03'0 0.0
2016-Jun-25 06:33N 42°23' W 071°03'0 0.0
2016-Jun-25 05:33N 42°23' W 071°03'0 0.0
2016-Jun-25 04:33N 42°23' W 071°03'0 0.0
2016-Jun-25 03:33N 42°23' W 071°03'0 0.0
2016-Jun-25 02:34N 42°23' W 071°03'2 1.9
2016-Jun-25 01:34N 42°21' W 071°02'2 1.9
2016-Jun-25 00:33N 42°23' W 071°03'0 0.0
2016-Jun-24 23:33N 42°23' W 071°03'0 0.0
2016-Jun-24 22:34N 42°23' W 071°03'1 0.8
2016-Jun-24 21:33N 42°23' W 071°02'0 0.2
2016-Jun-24 20:33N 42°23' W 071°02'1 0.7
2016-Jun-24 19:33N 42°23' W 071°03'1 1.3
2016-Jun-24 18:34N 42°23' W 071°01'1 1.3
2016-Jun-24 17:34N 42°23' W 071°03'4 4.3
2016-Jun-24 16:33N 42°20' W 070°58'10 9.3
2016-Jun-24 15:31N 42°18' W 070°45'1010.3
2016-Jun-24 14:33N 42°11' W 070°36'14 9.3
2016-Jun-24 13:04N 41°58' W 070°30'5 9.1
2016-Jun-24 12:33N 41°53' W 070°29'13 6.2
2016-Jun-24 10:30N 41°43' W 070°39'8 8.7
2016-Jun-24 09:33N 41°35' W 070°43'18 8.7
2016-Jun-24 07:25N 41°24' W 071°03'42 3.4
2016-Jun-23 19:04N 41°60' W 070°33'5 9.9
2016-Jun-23 18:33N 42°04' W 070°35'10 9.9
2016-Jun-23 17:34N 42°14' W 070°40'9 8.9
2016-Jun-23 16:34N 42°19' W 070°50'9 8.7
2016-Jun-23 15:34N 42°21' W 071°01'2 2.1
2016-Jun-23 14:33N 42°23' W 071°03'2 1.6
2016-Jun-23 13:31N 42°24' W 071°01'2 1.6
2016-Jun-23 12:34N 42°23' W 071°03'0 0.1
2016-Jun-23 11:33N 42°23' W 071°03'0 0.0
2016-Jun-23 10:34N 42°23' W 071°03'0 0.0
2016-Jun-23 09:34N 42°23' W 071°03'1 0.8
2016-Jun-23 08:34N 42°23' W 071°02'1 0.8
2016-Jun-23 07:34N 42°23' W 071°03'0 0.0
2016-Jun-23 05:33N 42°23' W 071°03'0 0.0
2016-Jun-23 04:34N 42°23' W 071°03'0 0.0
2016-Jun-23 03:34N 42°23' W 071°03'0 0.0
2016-Jun-23 02:34N 42°23' W 071°03'0 0.0
2016-Jun-23 01:33N 42°23' W 071°03'0 0.0
2016-Jun-23 00:33N 42°23' W 071°03'0 0.0
2016-Jun-22 23:33N 42°23' W 071°03'0 0.0
2016-Jun-22 22:34N 42°23' W 071°03'0 0.0
2016-Jun-22 21:33N 42°23' W 071°03'0 0.0
2016-Jun-22 20:34N 42°23' W 071°03'0 0.0
2016-Jun-22 19:33N 42°23' W 071°03'0 0.0
2016-Jun-22 18:33N 42°23' W 071°03'0 0.0
2016-Jun-22 17:33N 42°23' W 071°03'0 0.0
2016-Jun-22 16:33N 42°23' W 071°03'1 1.2
2016-Jun-22 15:33N 42°23' W 071°01'2 1.7
2016-Jun-22 14:33N 42°22' W 071°03'1 0.6
2016-Jun-22 13:33N 42°23' W 071°03'0 0.0
2016-Jun-22 12:33N 42°23' W 071°03'0 0.0
2016-Jun-22 11:33N 42°23' W 071°03'0 0.0
2016-Jun-22 10:33N 42°23' W 071°03'0 0.3
2016-Jun-22 09:33N 42°23' W 071°02'0 0.3
2016-Jun-22 08:33N 42°23' W 071°03'0 0.0
2016-Jun-22 07:33N 42°23' W 071°03'0 0.0
2016-Jun-22 06:33N 42°23' W 071°03'0 0.0
2016-Jun-22 05:33N 42°23' W 071°03'0 0.0
2016-Jun-22 04:33N 42°23' W 071°03'0 0.0
2016-Jun-22 03:33N 42°23' W 071°03'0 0.0
2016-Jun-22 02:33N 42°23' W 071°03'0 0.0
2016-Jun-22 01:33N 42°23' W 071°03'0 0.0
2016-Jun-22 00:33N 42°23' W 071°03'0 0.0
2016-Jun-21 23:33N 42°23' W 071°03'0 0.0
2016-Jun-21 22:33N 42°23' W 071°03'0 0.0
2016-Jun-21 21:33N 42°23' W 071°03'0 0.0
2016-Jun-21 20:33N 42°23' W 071°03'1 1.4
2016-Jun-21 19:33N 42°24' W 071°01'1 1.3
2016-Jun-21 18:33N 42°23' W 071°03'0 0.2
2016-Jun-21 17:33N 42°23' W 071°03'0 0.0
2016-Jun-21 16:33N 42°23' W 071°03'0 0.0
2016-Jun-21 15:33N 42°23' W 071°03'0 0.0
2016-Jun-21 14:33N 42°23' W 071°03'0 0.0
2016-Jun-21 13:33N 42°23' W 071°03'0 0.0
2016-Jun-21 12:33N 42°23' W 071°03'0 0.0
2016-Jun-21 11:33N 42°23' W 071°03'0 0.0
2016-Jun-21 10:33N 42°23' W 071°03'0 0.0
2016-Jun-21 09:33N 42°23' W 071°03'0 0.0
2016-Jun-21 08:33N 42°23' W 071°03'0 0.0
2016-Jun-21 07:33N 42°23' W 071°03'0 0.0
2016-Jun-21 05:33N 42°23' W 071°03'0 0.0
2016-Jun-21 04:33N 42°23' W 071°03'0 0.0
2016-Jun-21 03:33N 42°23' W 071°03'0 0.0
2016-Jun-21 02:33N 42°23' W 071°03'0 0.0
2016-Jun-21 01:33N 42°23' W 071°03'0 0.0
2016-Jun-21 00:33N 42°23' W 071°03'0 0.0
2016-Jun-20 23:33N 42°23' W 071°03'0 0.0
2016-Jun-20 22:33N 42°23' W 071°03'0 0.0
2016-Jun-20 21:33N 42°23' W 071°03'2 2.3
2016-Jun-20 20:33N 42°21' W 071°02'0 0.3
2016-Jun-20 19:34N 42°21' W 071°01'2 2.5
2016-Jun-20 18:33N 42°23' W 071°03'0 0.0
2016-Jun-20 17:33N 42°23' W 071°03'0 0.0
2016-Jun-20 16:33N 42°23' W 071°03'1 0.9
2016-Jun-20 15:33N 42°23' W 071°01'0 0.2
2016-Jun-20 14:34N 42°23' W 071°02'1 1.2
2016-Jun-20 13:33N 42°23' W 071°03'1 0.7
2016-Jun-20 12:33N 42°23' W 071°03'0 0.0
2016-Jun-20 11:33N 42°23' W 071°03'0 0.0
2016-Jun-20 10:32N 42°23' W 071°03'0 0.0
2016-Jun-20 09:33N 42°23' W 071°03'0 0.0
2016-Jun-20 08:33N 42°23' W 071°03'2 2.5
2016-Jun-20 07:33N 42°21' W 071°01'2 1.8
2016-Jun-20 06:34N 42°20' W 070°59'4 3.9
2016-Jun-20 05:33N 42°23' W 071°03'0 0.0
2016-Jun-20 04:33N 42°23' W 071°03'0 0.0
2016-Jun-20 03:33N 42°23' W 071°03'0 0.0
2016-Jun-20 02:33N 42°23' W 071°03'0 0.0
2016-Jun-20 01:33N 42°23' W 071°03'2 1.7
2016-Jun-20 00:33N 42°21' W 071°02'3 2.6
2016-Jun-19 23:33N 42°23' W 071°04'1 1.1
2016-Jun-19 22:33N 42°23' W 071°03'0 0.0
2016-Jun-19 21:33N 42°23' W 071°03'0 0.0
2016-Jun-19 20:33N 42°23' W 071°03'0 0.1
2016-Jun-19 19:33N 42°23' W 071°03'0 0.0
2016-Jun-19 18:33N 42°23' W 071°03'0 0.4
2016-Jun-19 17:33N 42°23' W 071°02'1 0.5
2016-Jun-19 16:33N 42°23' W 071°01'1 0.9
2016-Jun-19 15:33N 42°23' W 071°03'0 0.0
2016-Jun-19 14:33N 42°23' W 071°03'2 1.7
2016-Jun-19 13:33N 42°24' W 071°01'1 1.5
2016-Jun-19 12:33N 42°23' W 071°03'0 0.3
2016-Jun-19 11:33N 42°23' W 071°03'0 0.0
2016-Jun-19 10:33N 42°23' W 071°03'0 0.0
2016-Jun-19 09:33N 42°23' W 071°03'0 0.0
2016-Jun-19 08:33N 42°23' W 071°03'0 0.0
2016-Jun-19 07:33N 42°23' W 071°03'0 0.3
2016-Jun-19 06:33N 42°23' W 071°03'1 1.5
2016-Jun-19 05:33N 42°22' W 071°02'1 1.4
2016-Jun-19 04:33N 42°21' W 071°01'3 3.4
2016-Jun-19 03:33N 42°23' W 071°04'0 0.0
2016-Jun-19 02:33N 42°23' W 071°04'2 1.6
2016-Jun-19 01:34N 42°22' W 071°03'4 3.9
2016-Jun-19 00:33N 42°21' W 070°58'0 0.0
2016-Jun-18 23:33N 42°21' W 070°58'4 3.6
2016-Jun-18 22:34N 42°23' W 070°53'2 1.6
2016-Jun-18 21:33N 42°22' W 070°55'5 5.4
2016-Jun-18 20:33N 42°23' W 071°03'0 0.0
2016-Jun-18 19:33N 42°23' W 071°03'0 0.0
2016-Jun-18 18:33N 42°23' W 071°03'1 0.7
2016-Jun-18 17:32N 42°23' W 071°02'1 1.3
2016-Jun-18 16:33N 42°22' W 071°03'1 1.3
2016-Jun-18 15:33N 42°23' W 071°02'1 0.9
2016-Jun-18 14:33N 42°23' W 071°03'2 1.6
2016-Jun-18 13:33N 42°21' W 071°02'2 1.7
2016-Jun-18 12:33N 42°23' W 071°03'0 0.0
2016-Jun-18 11:33N 42°23' W 071°03'  
Track history (hours):
 
Tides and Currents Weather Stations Pressure Air Temp Water Temp Dewpoint Dewpoint Depression Visibility Wind Speed Wind Dir Waves Ship Positions

Justice

Owner: Boston Towing & Transportation, Boston, MA. More information available from US FCC via Universal Licensing System and Coast Guard Vessel Documentation Center.

Last reported at 2016-Jun-28 11:33 UTC. Time now 2016-Jun-28 11:41 UTC.
Position N 42°23' W 071°03'.

Length 30 m; draft 5.8 m.

Type: Tug. MMSI: 367513010.

Date/timePositionNaut miles runAvg speedWind from/ knotsBaromVisibWave heightAir tempDewpointWater temp
2016-Jun-28 11:33N 42°23' W 071°03'0 0.0
2016-Jun-28 10:33N 42°23' W 071°03'0 0.0
2016-Jun-28 09:34N 42°23' W 071°03'0 0.0
2016-Jun-28 08:33N 42°23' W 071°03'0 0.0
2016-Jun-28 07:33N 42°23' W 071°03'0 0.0
2016-Jun-28 06:33N 42°23' W 071°03'0 0.0
2016-Jun-28 04:33N 42°23' W 071°03'0 0.0
2016-Jun-28 03:34N 42°23' W 071°03'0 0.0
2016-Jun-28 02:33N 42°23' W 071°03'0 0.0
2016-Jun-28 01:33N 42°23' W 071°03'0 0.0
2016-Jun-28 00:33N 42°23' W 071°03'0 0.0
2016-Jun-27 23:33N 42°23' W 071°03'0 0.0
2016-Jun-27 22:33N 42°23' W 071°03'0 0.1
2016-Jun-27 21:33N 42°23' W 071°03'0 0.0
2016-Jun-27 20:33N 42°23' W 071°03'0 0.0
2016-Jun-27 19:34N 42°23' W 071°03'5 5.2
2016-Jun-27 18:34N 42°20' W 070°57'9 8.8
2016-Jun-27 17:33N 42°18' W 070°45'40 7.4
2016-Jun-27 12:09N 41°38' W 070°42'5 9.2
2016-Jun-27 11:34N 41°33' W 070°45'11 9.6
2016-Jun-27 10:28N 41°28' W 070°57'1 1.2
2016-Jun-27 09:21N 41°29' W 070°56'910.4
2016-Jun-27 08:28N 41°34' W 070°45'9 9.7
2016-Jun-27 07:34N 41°41' W 070°40'3 3.5
2016-Jun-27 06:33N 41°44' W 070°37'0 0.0
2016-Jun-27 05:34N 41°44' W 070°37'0 0.0
2016-Jun-27 04:33N 41°44' W 070°37'27 3.9
2016-Jun-26 21:33N 42°12' W 070°38'8 8.2
2016-Jun-26 20:33N 42°17' W 070°46'9 8.6
2016-Jun-26 19:33N 42°20' W 070°57'5 4.6
2016-Jun-26 18:34N 42°24' W 071°01'2 1.8
2016-Jun-26 17:34N 42°23' W 071°03'0 0.1
2016-Jun-26 16:34N 42°23' W 071°03'0 0.0
2016-Jun-26 15:34N 42°23' W 071°03'0 0.0
2016-Jun-26 14:34N 42°23' W 071°03'0 0.0
2016-Jun-26 13:33N 42°23' W 071°03'0 0.0
2016-Jun-26 12:33N 42°23' W 071°03'3 2.8
2016-Jun-26 11:33N 42°20' W 071°00'5 4.7
2016-Jun-26 10:34N 42°17' W 070°56'4 3.6
2016-Jun-26 09:34N 42°14' W 070°58'6 5.8
2016-Jun-26 08:34N 42°20' W 070°58'1 0.8
2016-Jun-26 07:34N 42°20' W 070°60'0 0.1
2016-Jun-26 06:34N 42°20' W 070°60'3 3.3
2016-Jun-26 05:34N 42°23' W 071°03'2 2.4
2016-Jun-26 04:33N 42°21' W 071°01'3 3.3
2016-Jun-26 03:33N 42°24' W 071°01'2 1.7
2016-Jun-26 02:33N 42°23' W 071°03'0 0.0
2016-Jun-26 01:33N 42°23' W 071°03'0 0.0
2016-Jun-26 00:34N 42°23' W 071°03'0 0.0
2016-Jun-25 23:34N 42°23' W 071°03'0 0.0
2016-Jun-25 22:34N 42°23' W 071°03'0 0.0
2016-Jun-25 21:34N 42°23' W 071°03'0 0.0
2016-Jun-25 20:33N 42°23' W 071°03'1 0.9
2016-Jun-25 19:34N 42°22' W 071°03'1 1.4
2016-Jun-25 18:33N 42°21' W 071°02'0 0.0
2016-Jun-25 17:34N 42°21' W 071°02'0 0.0
2016-Jun-25 16:34N 42°21' W 071°02'0 0.0
2016-Jun-25 15:33N 42°21' W 071°02'3 2.6
2016-Jun-25 14:33N 42°23' W 071°03'0 0.0
2016-Jun-25 13:34N 42°23' W 071°03'0 0.0
2016-Jun-25 12:33N 42°23' W 071°03'0 0.0
2016-Jun-25 11:33N 42°23' W 071°03'2 1.8
2016-Jun-25 10:34N 42°21' W 071°02'1 0.8
2016-Jun-25 09:33N 42°21' W 071°01'2 2.2
2016-Jun-25 08:33N 42°23' W 071°03'0 0.0
2016-Jun-25 07:33N 42°23' W 071°03'0 0.0
2016-Jun-25 06:33N 42°23' W 071°03'0 0.0
2016-Jun-25 05:33N 42°23' W 071°03'0 0.0
2016-Jun-25 04:33N 42°23' W 071°03'0 0.0
2016-Jun-25 03:33N 42°23' W 071°03'0 0.0
2016-Jun-25 02:34N 42°23' W 071°03'2 1.9
2016-Jun-25 01:34N 42°21' W 071°02'2 1.9
2016-Jun-25 00:33N 42°23' W 071°03'0 0.0
2016-Jun-24 23:33N 42°23' W 071°03'0 0.0
2016-Jun-24 22:34N 42°23' W 071°03'1 0.8
2016-Jun-24 21:33N 42°23' W 071°02'0 0.2
2016-Jun-24 20:33N 42°23' W 071°02'1 0.7
2016-Jun-24 19:33N 42°23' W 071°03'1 1.3
2016-Jun-24 18:34N 42°23' W 071°01'1 1.3
2016-Jun-24 17:34N 42°23' W 071°03'4 4.3
2016-Jun-24 16:33N 42°20' W 070°58'10 9.3
2016-Jun-24 15:31N 42°18' W 070°45'1010.3
2016-Jun-24 14:33N 42°11' W 070°36'14 9.3
2016-Jun-24 13:04N 41°58' W 070°30'5 9.1
2016-Jun-24 12:33N 41°53' W 070°29'13 6.2
2016-Jun-24 10:30N 41°43' W 070°39'8 8.7
2016-Jun-24 09:33N 41°35' W 070°43'18 8.7
2016-Jun-24 07:25N 41°24' W 071°03'42 3.4
2016-Jun-23 19:04N 41°60' W 070°33'5 9.9
2016-Jun-23 18:33N 42°04' W 070°35'10 9.9
2016-Jun-23 17:34N 42°14' W 070°40'9 8.9
2016-Jun-23 16:34N 42°19' W 070°50'9 8.7
2016-Jun-23 15:34N 42°21' W 071°01'2 2.1
2016-Jun-23 14:33N 42°23' W 071°03'2 1.6
2016-Jun-23 13:31N 42°24' W 071°01'2 1.6
2016-Jun-23 12:34N 42°23' W 071°03'0 0.1
2016-Jun-23 11:33N 42°23' W 071°03'0 0.0
2016-Jun-23 10:34N 42°23' W 071°03'0 0.0
2016-Jun-23 09:34N 42°23' W 071°03'1 0.8
2016-Jun-23 08:34N 42°23' W 071°02'1 0.8
2016-Jun-23 07:34N 42°23' W 071°03'0 0.0
2016-Jun-23 05:33N 42°23' W 071°03'0 0.0
2016-Jun-23 04:34N 42°23' W 071°03'0 0.0
2016-Jun-23 03:34N 42°23' W 071°03'0 0.0
2016-Jun-23 02:34N 42°23' W 071°03'0 0.0
2016-Jun-23 01:33N 42°23' W 071°03'0 0.0
2016-Jun-23 00:33N 42°23' W 071°03'0 0.0
2016-Jun-22 23:33N 42°23' W 071°03'0 0.0
2016-Jun-22 22:34N 42°23' W 071°03'0 0.0
2016-Jun-22 21:33N 42°23' W 071°03'0 0.0
2016-Jun-22 20:34N 42°23' W 071°03'0 0.0
2016-Jun-22 19:33N 42°23' W 071°03'0 0.0
2016-Jun-22 18:33N 42°23' W 071°03'0 0.0
2016-Jun-22 17:33N 42°23' W 071°03'0 0.0
2016-Jun-22 16:33N 42°23' W 071°03'1 1.2
2016-Jun-22 15:33N 42°23' W 071°01'2 1.7
2016-Jun-22 14:33N 42°22' W 071°03'1 0.6
2016-Jun-22 13:33N 42°23' W 071°03'0 0.0
2016-Jun-22 12:33N 42°23' W 071°03'0 0.0
2016-Jun-22 11:33N 42°23' W 071°03'0 0.0
2016-Jun-22 10:33N 42°23' W 071°03'0 0.3
2016-Jun-22 09:33N 42°23' W 071°02'0 0.3
2016-Jun-22 08:33N 42°23' W 071°03'0 0.0
2016-Jun-22 07:33N 42°23' W 071°03'0 0.0
2016-Jun-22 06:33N 42°23' W 071°03'0 0.0
2016-Jun-22 05:33N 42°23' W 071°03'0 0.0
2016-Jun-22 04:33N 42°23' W 071°03'0 0.0
2016-Jun-22 03:33N 42°23' W 071°03'0 0.0
2016-Jun-22 02:33N 42°23' W 071°03'0 0.0
2016-Jun-22 01:33N 42°23' W 071°03'0 0.0
2016-Jun-22 00:33N 42°23' W 071°03'0 0.0
2016-Jun-21 23:33N 42°23' W 071°03'0 0.0
2016-Jun-21 22:33N 42°23' W 071°03'0 0.0
2016-Jun-21 21:33N 42°23' W 071°03'0 0.0
2016-Jun-21 20:33N 42°23' W 071°03'1 1.4
2016-Jun-21 19:33N 42°24' W 071°01'1 1.3
2016-Jun-21 18:33N 42°23' W 071°03'0 0.2
2016-Jun-21 17:33N 42°23' W 071°03'0 0.0
2016-Jun-21 16:33N 42°23' W 071°03'0 0.0
2016-Jun-21 15:33N 42°23' W 071°03'0 0.0
2016-Jun-21 14:33N 42°23' W 071°03'0 0.0
2016-Jun-21 13:33N 42°23' W 071°03'0 0.0
2016-Jun-21 12:33N 42°23' W 071°03'0 0.0
2016-Jun-21 11:33N 42°23' W 071°03'0 0.0
2016-Jun-21 10:33N 42°23' W 071°03'0 0.0
2016-Jun-21 09:33N 42°23' W 071°03'0 0.0
2016-Jun-21 08:33N 42°23' W 071°03'0 0.0
2016-Jun-21 07:33N 42°23' W 071°03'0 0.0
2016-Jun-21 05:33N 42°23' W 071°03'0 0.0
2016-Jun-21 04:33N 42°23' W 071°03'0 0.0
2016-Jun-21 03:33N 42°23' W 071°03'0 0.0
2016-Jun-21 02:33N 42°23' W 071°03'0 0.0
2016-Jun-21 01:33N 42°23' W 071°03'0 0.0
2016-Jun-21 00:33N 42°23' W 071°03'0 0.0
2016-Jun-20 23:33N 42°23' W 071°03'0 0.0
2016-Jun-20 22:33N 42°23' W 071°03'0 0.0
2016-Jun-20 21:33N 42°23' W 071°03'2 2.3
2016-Jun-20 20:33N 42°21' W 071°02'0 0.3
2016-Jun-20 19:34N 42°21' W 071°01'2 2.5
2016-Jun-20 18:33N 42°23' W 071°03'0 0.0
2016-Jun-20 17:33N 42°23' W 071°03'0 0.0
2016-Jun-20 16:33N 42°23' W 071°03'1 0.9
2016-Jun-20 15:33N 42°23' W 071°01'0 0.2
2016-Jun-20 14:34N 42°23' W 071°02'1 1.2
2016-Jun-20 13:33N 42°23' W 071°03'1 0.7
2016-Jun-20 12:33N 42°23' W 071°03'0 0.0
2016-Jun-20 11:33N 42°23' W 071°03'0 0.0
2016-Jun-20 10:32N 42°23' W 071°03'0 0.0
2016-Jun-20 09:33N 42°23' W 071°03'0 0.0
2016-Jun-20 08:33N 42°23' W 071°03'2 2.5
2016-Jun-20 07:33N 42°21' W 071°01'2 1.8
2016-Jun-20 06:34N 42°20' W 070°59'4 3.9
2016-Jun-20 05:33N 42°23' W 071°03'0 0.0
2016-Jun-20 04:33N 42°23' W 071°03'0 0.0
2016-Jun-20 03:33N 42°23' W 071°03'0 0.0
2016-Jun-20 02:33N 42°23' W 071°03'0 0.0
2016-Jun-20 01:33N 42°23' W 071°03'2 1.7
2016-Jun-20 00:33N 42°21' W 071°02'3 2.6
2016-Jun-19 23:33N 42°23' W 071°04'1 1.1
2016-Jun-19 22:33N 42°23' W 071°03'0 0.0
2016-Jun-19 21:33N 42°23' W 071°03'0 0.0
2016-Jun-19 20:33N 42°23' W 071°03'0 0.1
2016-Jun-19 19:33N 42°23' W 071°03'0 0.0
2016-Jun-19 18:33N 42°23' W 071°03'0 0.4
2016-Jun-19 17:33N 42°23' W 071°02'1 0.5
2016-Jun-19 16:33N 42°23' W 071°01'1 0.9
2016-Jun-19 15:33N 42°23' W 071°03'0 0.0
2016-Jun-19 14:33N 42°23' W 071°03'2 1.7
2016-Jun-19 13:33N 42°24' W 071°01'1 1.5
2016-Jun-19 12:33N 42°23' W 071°03'0 0.3
2016-Jun-19 11:33N 42°23' W 071°03'0 0.0
2016-Jun-19 10:33N 42°23' W 071°03'0 0.0
2016-Jun-19 09:33N 42°23' W 071°03'0 0.0
2016-Jun-19 08:33N 42°23' W 071°03'0 0.0
2016-Jun-19 07:33N 42°23' W 071°03'0 0.3
2016-Jun-19 06:33N 42°23' W 071°03'1 1.5
2016-Jun-19 05:33N 42°22' W 071°02'1 1.4
2016-Jun-19 04:33N 42°21' W 071°01'3 3.4
2016-Jun-19 03:33N 42°23' W 071°04'0 0.0
2016-Jun-19 02:33N 42°23' W 071°04'2 1.6
2016-Jun-19 01:34N 42°22' W 071°03'4 3.9
2016-Jun-19 00:33N 42°21' W 070°58'0 0.0
2016-Jun-18 23:33N 42°21' W 070°58'4 3.6
2016-Jun-18 22:34N 42°23' W 070°53'2 1.6
2016-Jun-18 21:33N 42°22' W 070°55'5 5.4
2016-Jun-18 20:33N 42°23' W 071°03'0 0.0
2016-Jun-18 19:33N 42°23' W 071°03'0 0.0
2016-Jun-18 18:33N 42°23' W 071°03'1 0.7
2016-Jun-18 17:32N 42°23' W 071°02'1 1.3
2016-Jun-18 16:33N 42°22' W 071°03'1 1.3
2016-Jun-18 15:33N 42°23' W 071°02'1 0.9
2016-Jun-18 14:33N 42°23' W 071°03'2 1.6
2016-Jun-18 13:33N 42°21' W 071°02'2 1.7
2016-Jun-18 12:33N 42°23' W 071°03'0 0.0
2016-Jun-18 11:33N 42°23' W 071°03'  

Dump ship's entire track history